Time;durP1;ratioP1;P1;durP2;ratioP2;P2;SDS_P1;SDS_P2;PMS_P1;PMS_P2;Temp;Humidity;BMP_temperature;BMP_pressure;BME280_temperature;BME280_humidity;BME280_pressure;Samples;Min_cycle;Max_cycle;Signal;HPM_P1;HPM_P2
2021/12/29 00:01:53;;;;;;;11.43;8.00;;;;;;;;;;773724;182;918778;-66
2021/12/29 00:04:19;;;;;;;12.47;8.13;;;;;;;;;;765965;182;919962;-66
2021/12/29 00:06:44;;;;;;;9.03;7.50;;;;;;;;;;763878;182;914153;-66
2021/12/29 00:09:10;;;;;;;10.70;7.82;;;;;;;;;;772662;182;919790;-66
2021/12/29 00:11:38;;;;;;;11.53;8.20;;;;;;;;;;763019;183;920304;-66
2021/12/29 00:14:02;;;;;;;12.63;7.73;;;;;;;;;;766354;183;920068;-65
2021/12/29 00:16:29;;;;;;;14.77;9.27;;;;;;;;;;764596;183;919126;-65
2021/12/29 00:18:54;;;;;;;10.77;7.20;;;;;;;;;;776810;182;620614;-65
2021/12/29 00:21:20;;;;;;;11.17;7.53;;;;;;;;;;767189;182;919520;-64
2021/12/29 00:23:46;;;;;;;11.00;7.70;;;;;;;;;;760651;182;919385;-65
2021/12/29 00:26:14;;;;;;;11.93;7.40;;;;;;;;;;770412;182;919014;-65
2021/12/29 00:28:38;;;;;;;9.07;7.70;;;;;;;;;;770011;182;918532;-64
2021/12/29 00:31:04;;;;;;;10.80;7.30;;;;;;;;;;768397;182;919613;-65
2021/12/29 00:33:30;;;;;;;8.53;6.50;;;;;;;;;;771950;182;1021880;-65
2021/12/29 00:35:55;;;;;;;9.97;6.90;;;;;;;;;;764984;183;920036;-64
2021/12/29 00:38:21;;;;;;;9.17;7.50;;;;;;;;;;764371;183;918830;-65
2021/12/29 00:40:47;;;;;;;9.23;6.60;;;;;;;;;;764531;183;919750;-65
2021/12/29 00:43:13;;;;;;;7.83;5.63;;;;;;;;;;755787;185;918929;-66
2021/12/29 00:45:39;;;;;;;10.67;6.37;;;;;;;;;;757274;184;919212;-65
2021/12/29 00:48:05;;;;;;;8.40;6.40;;;;;;;;;;752957;184;918448;-65
2021/12/29 00:50:33;;;;;;;8.20;6.93;;;;;;;;;;755502;185;919065;-65
2021/12/29 00:52:57;;;;;;;8.90;6.47;;;;;;;;;;740919;188;919938;-65
2021/12/29 00:55:22;;;;;;;7.63;6.20;;;;;;;;;;735487;188;919048;-66
2021/12/29 00:57:51;;;;;;;8.37;6.03;;;;;;;;;;760832;183;918227;-65
2021/12/29 01:00:14;;;;;;;9.23;6.80;;;;;;;;;;757308;184;921784;-65
2021/12/29 01:02:40;;;;;;;10.30;7.47;;;;;;;;;;756016;184;918715;-65
2021/12/29 01:05:06;;;;;;;9.85;7.37;;;;;;;;;;774327;182;919291;-64
2021/12/29 01:07:32;;;;;;;7.77;6.03;;;;;;;;;;766790;182;919693;-65
2021/12/29 01:09:59;;;;;;;9.93;6.73;;;;;;;;;;765306;182;918674;-65
2021/12/29 01:12:24;;;;;;;8.27;5.80;;;;;;;;;;768868;182;1019241;-65
2021/12/29 01:14:55;;;;;;;7.50;5.70;;;;;;;;;;772757;183;919236;-65
2021/12/29 01:17:18;;;;;;;8.30;5.70;;;;;;;;;;764219;183;920968;-67
2021/12/29 01:19:44;;;;;;;10.30;7.33;;;;;;;;;;760857;183;919362;-66
2021/12/29 01:22:10;;;;;;;10.37;6.70;;;;;;;;;;771328;179;918840;-66
2021/12/29 01:24:36;;;;;;;9.20;6.62;;;;;;;;;;767944;183;918541;-66
2021/12/29 01:27:02;;;;;;;8.97;6.40;;;;;;;;;;766684;182;1021499;-65
2021/12/29 01:29:28;;;;;;;8.60;5.63;;;;;;;;;;766509;182;918385;-66
2021/12/29 01:31:53;;;;;;;9.67;5.90;;;;;;;;;;771376;183;618967;-66
2021/12/29 01:34:19;;;;;;;8.80;6.33;;;;;;;;;;764782;183;919309;-66
2021/12/29 01:36:45;;;;;;;7.50;5.73;;;;;;;;;;760746;183;1020033;-66
2021/12/29 01:39:11;;;;;;;8.00;6.10;;;;;;;;;;767023;183;1720852;-66
2021/12/29 01:41:37;;;;;;;9.07;6.53;;;;;;;;;;766361;183;919038;-66
2021/12/29 01:44:03;;;;;;;8.77;5.80;;;;;;;;;;762127;182;919208;-66
2021/12/29 01:46:28;;;;;;;6.80;4.90;;;;;;;;;;771246;183;917695;-66
2021/12/29 01:48:55;;;;;;;5.57;4.12;;;;;;;;;;769427;182;918403;-66
2021/12/29 01:51:20;;;;;;;7.80;5.27;;;;;;;;;;769500;182;915551;-66
2021/12/29 01:53:51;;;;;;;6.67;4.77;;;;;;;;;;772043;182;915903;-66
2021/12/29 01:56:12;;;;;;;7.05;4.32;;;;;;;;;;767093;183;920152;-66
2021/12/29 01:58:38;;;;;;;6.33;4.63;;;;;;;;;;766215;182;918753;-66
2021/12/29 02:01:04;;;;;;;5.60;3.50;;;;;;;;;;761995;181;918241;-66
2021/12/29 02:03:29;;;;;;;5.07;3.77;;;;;;;;;;776214;182;617202;-66
2021/12/29 02:05:55;;;;;;;5.10;3.10;;;;;;;;;;772193;182;919568;-66
2021/12/29 02:08:23;;;;;;;4.15;3.08;;;;;;;;;;768069;181;917222;-66
2021/12/29 02:10:47;;;;;;;4.33;3.03;;;;;;;;;;774839;183;918221;-65
2021/12/29 02:13:13;;;;;;;4.20;3.37;;;;;;;;;;767902;183;920508;-66
2021/12/29 02:15:39;;;;;;;4.53;2.60;;;;;;;;;;768731;182;919725;-66
2021/12/29 02:18:12;;;;;;;3.77;2.27;;;;;;;;;;772600;182;918752;-66
2021/12/29 02:20:30;;;;;;;3.17;2.50;;;;;;;;;;763111;183;1121613;-67
2021/12/29 02:23:12;;;;;;;3.10;2.10;;;;;;;;;;768760;182;1018220;-67
2021/12/29 02:25:46;;;;;;;3.65;2.72;;;;;;;;;;766103;179;916735;-67
2021/12/29 02:27:58;;;;;;;3.37;2.50;;;;;;;;;;771462;182;916269;-66
2021/12/29 02:30:24;;;;;;;4.53;2.27;;;;;;;;;;766993;182;918008;-65
2021/12/29 02:32:54;;;;;;;4.37;2.47;;;;;;;;;;767859;182;916346;-66
2021/12/29 02:35:16;;;;;;;3.47;2.20;;;;;;;;;;761546;183;914073;-65
2021/12/29 02:37:42;;;;;;;2.90;2.23;;;;;;;;;;767178;182;916280;-65
2021/12/29 02:40:08;;;;;;;3.40;2.10;;;;;;;;;;768158;182;920329;-66
2021/12/29 02:42:40;;;;;;;3.30;2.58;;;;;;;;;;762320;183;916666;-66
2021/12/29 02:45:02;;;;;;;3.50;2.27;;;;;;;;;;772444;183;919410;-66
2021/12/29 02:47:26;;;;;;;4.20;1.87;;;;;;;;;;765806;183;919120;-66
2021/12/29 02:49:51;;;;;;;3.10;2.23;;;;;;;;;;765951;182;918348;-66
2021/12/29 02:52:19;;;;;;;3.70;2.10;;;;;;;;;;771025;182;919435;-66
2021/12/29 02:54:43;;;;;;;2.90;2.43;;;;;;;;;;770186;182;918844;-65
2021/12/29 02:57:09;;;;;;;3.00;2.15;;;;;;;;;;768020;183;918999;-65
2021/12/29 02:59:35;;;;;;;3.20;2.03;;;;;;;;;;772038;183;918524;-65
2021/12/29 03:02:01;;;;;;;3.70;2.60;;;;;;;;;;766693;182;920099;-64
2021/12/29 03:04:27;;;;;;;3.17;2.20;;;;;;;;;;761512;182;918216;-65
2021/12/29 03:06:53;;;;;;;3.90;2.73;;;;;;;;;;764127;183;629033;-65
2021/12/29 03:09:19;;;;;;;4.57;2.70;;;;;;;;;;771806;183;624724;-66
2021/12/29 03:11:45;;;;;;;4.10;2.70;;;;;;;;;;771771;183;618160;-65
2021/12/29 03:14:11;;;;;;;6.40;3.90;;;;;;;;;;771609;183;634195;-65
2021/12/29 03:16:36;;;;;;;4.87;3.23;;;;;;;;;;774207;181;615598;-65
2021/12/29 03:19:02;;;;;;;4.43;2.80;;;;;;;;;;767067;181;919967;-66
2021/12/29 03:21:28;;;;;;;6.47;3.57;;;;;;;;;;762353;182;918801;-66
2021/12/29 03:23:54;;;;;;;5.77;3.87;;;;;;;;;;768827;182;918747;-66
2021/12/29 03:26:20;;;;;;;4.27;2.93;;;;;;;;;;768956;182;925095;-66
2021/12/29 03:28:46;;;;;;;3.60;3.20;;;;;;;;;;763436;182;1021113;-66
2021/12/29 03:31:15;;;;;;;4.93;3.30;;;;;;;;;;762381;183;919461;-65
2021/12/29 03:33:38;;;;;;;5.30;3.50;;;;;;;;;;775963;182;917132;-66
2021/12/29 03:36:04;;;;;;;5.47;4.03;;;;;;;;;;767994;182;917950;-66
2021/12/29 03:38:29;;;;;;;5.27;3.70;;;;;;;;;;768722;182;919163;-66
2021/12/29 03:40:55;;;;;;;6.53;3.73;;;;;;;;;;772262;183;918580;-65
2021/12/29 03:43:21;;;;;;;4.53;2.90;;;;;;;;;;767557;182;919678;-67
2021/12/29 03:45:47;;;;;;;9.20;3.73;;;;;;;;;;765774;182;919482;-66
2021/12/29 03:48:13;;;;;;;6.40;3.87;;;;;;;;;;770515;182;918814;-66
2021/12/29 03:50:39;;;;;;;4.50;3.23;;;;;;;;;;764666;180;919275;-66
2021/12/29 03:53:04;;;;;;;6.33;3.80;;;;;;;;;;766924;182;918732;-66
2021/12/29 03:55:30;;;;;;;5.23;3.50;;;;;;;;;;769585;182;918694;-66
2021/12/29 03:57:56;;;;;;;5.40;3.60;;;;;;;;;;764203;184;919871;-66
2021/12/29 04:00:22;;;;;;;6.73;3.67;;;;;;;;;;761078;183;1042305;-66
2021/12/29 04:02:48;;;;;;;5.90;4.03;;;;;;;;;;759955;182;918556;-66
2021/12/29 04:05:14;;;;;;;5.57;3.50;;;;;;;;;;771694;182;919400;-65
2021/12/29 04:07:39;;;;;;;4.50;3.47;;;;;;;;;;766776;182;919770;-66
2021/12/29 04:10:06;;;;;;;5.50;3.50;;;;;;;;;;764793;182;919592;-65
2021/12/29 04:12:31;;;;;;;5.93;3.43;;;;;;;;;;770448;182;918286;-65
2021/12/29 04:14:57;;;;;;;5.17;2.97;;;;;;;;;;766284;182;919597;-65
2021/12/29 04:17:29;;;;;;;3.73;2.63;;;;;;;;;;765780;183;919401;-66
2021/12/29 04:22:22;;;;;;;6.20;3.70;;;;;;;;;;772566;180;918486;-66
2021/12/29 04:24:49;;;;;;;9.93;3.87;;;;;;;;;;763424;183;919522;-66
2021/12/29 04:27:13;;;;;;;5.72;3.58;;;;;;;;;;766052;183;919269;-66
2021/12/29 04:29:39;;;;;;;5.30;3.53;;;;;;;;;;766812;183;918635;-66
2021/12/29 04:32:05;;;;;;;6.03;3.83;;;;;;;;;;768675;181;1021342;-66
2021/12/29 04:34:31;;;;;;;6.40;4.40;;;;;;;;;;769696;182;918393;-65
2021/12/29 04:36:57;;;;;;;6.00;4.45;;;;;;;;;;772864;180;918357;-64
2021/12/29 04:39:23;;;;;;;7.60;4.13;;;;;;;;;;769416;182;919149;-66
2021/12/29 04:41:49;;;;;;;6.20;4.23;;;;;;;;;;769647;182;919343;-66
2021/12/29 04:44:15;;;;;;;9.30;4.50;;;;;;;;;;766602;182;919019;-66
2021/12/29 04:46:45;;;;;;;6.93;4.60;;;;;;;;;;774403;183;917854;-65
2021/12/29 04:49:09;;;;;;;6.87;4.80;;;;;;;;;;767393;182;1021810;-65
2021/12/29 04:51:35;;;;;;;5.97;4.07;;;;;;;;;;767292;183;918323;-66
2021/12/29 04:53:59;;;;;;;6.63;4.13;;;;;;;;;;772393;182;918613;-66
2021/12/29 04:56:25;;;;;;;5.00;3.53;;;;;;;;;;763959;182;920514;-65
2021/12/29 04:58:51;;;;;;;6.97;4.10;;;;;;;;;;767158;182;920254;-66
2021/12/29 05:01:17;;;;;;;7.03;4.67;;;;;;;;;;773226;183;919165;-66
2021/12/29 05:03:44;;;;;;;8.97;4.97;;;;;;;;;;765177;183;918765;-68
2021/12/29 05:08:49;;;;;;;7.60;4.50;;;;;;;;;;764571;182;933620;-66
2021/12/29 05:11:15;;;;;;;5.78;4.53;;;;;;;;;;765300;182;926536;-66
2021/12/29 05:13:41;;;;;;;8.20;4.40;;;;;;;;;;773087;180;969113;-66
2021/12/29 05:16:07;;;;;;;6.83;5.30;;;;;;;;;;765792;183;919071;-67
2021/12/29 05:18:32;;;;;;;7.03;5.03;;;;;;;;;;764840;182;920299;-66
2021/12/29 05:20:58;;;;;;;10.90;6.77;;;;;;;;;;772568;182;919103;-67
2021/12/29 05:23:24;;;;;;;10.00;6.23;;;;;;;;;;764938;183;919540;-67
2021/12/29 05:25:50;;;;;;;13.10;6.90;;;;;;;;;;766029;183;919192;-67
2021/12/29 05:28:17;;;;;;;13.90;6.97;;;;;;;;;;772016;182;920318;-66
2021/12/29 05:30:42;;;;;;;8.83;6.10;;;;;;;;;;765801;182;919294;-66
2021/12/29 05:33:08;;;;;;;8.87;6.73;;;;;;;;;;765499;182;919185;-67
2021/12/29 05:35:33;;;;;;;10.13;6.13;;;;;;;;;;766370;182;918629;-65
2021/12/29 05:37:59;;;;;;;10.87;7.00;;;;;;;;;;774692;180;918879;-66
2021/12/29 05:40:27;;;;;;;12.53;6.83;;;;;;;;;;766155;181;919268;-67
2021/12/29 05:42:51;;;;;;;9.90;6.68;;;;;;;;;;764174;182;915144;-66
2021/12/29 05:45:17;;;;;;;10.97;6.50;;;;;;;;;;770101;182;916437;-66
2021/12/29 05:47:43;;;;;;;10.03;7.50;;;;;;;;;;766800;182;919896;-66
2021/12/29 05:50:09;;;;;;;8.23;5.77;;;;;;;;;;768361;183;914494;-66
2021/12/29 05:52:35;;;;;;;8.37;5.70;;;;;;;;;;772387;183;918838;-66
2021/12/29 05:55:01;;;;;;;11.07;7.17;;;;;;;;;;766824;181;919331;-66
2021/12/29 05:57:27;;;;;;;11.70;7.60;;;;;;;;;;767182;182;920308;-67
2021/12/29 05:59:52;;;;;;;11.93;6.47;;;;;;;;;;770814;182;918215;-66
2021/12/29 06:02:18;;;;;;;9.60;6.33;;;;;;;;;;765296;183;919141;-67
2021/12/29 06:04:44;;;;;;;9.40;6.70;;;;;;;;;;762708;183;920162;-67
2021/12/29 06:07:10;;;;;;;13.13;7.37;;;;;;;;;;766731;182;918526;-67
2021/12/29 06:09:36;;;;;;;11.47;7.60;;;;;;;;;;772653;182;919654;-67
2021/12/29 06:12:02;;;;;;;11.95;7.70;;;;;;;;;;762515;183;919641;-66
2021/12/29 06:14:27;;;;;;;14.20;7.47;;;;;;;;;;764734;182;919767;-67
2021/12/29 06:16:53;;;;;;;13.63;9.50;;;;;;;;;;773319;180;918881;-66
2021/12/29 06:19:19;;;;;;;14.93;8.10;;;;;;;;;;767252;182;914017;-67
2021/12/29 06:21:45;;;;;;;15.27;7.87;;;;;;;;;;765090;182;916061;-67
2021/12/29 06:24:11;;;;;;;14.93;8.00;;;;;;;;;;765895;183;915465;-66
2021/12/29 06:26:37;;;;;;;11.93;8.57;;;;;;;;;;762513;183;919377;-66
2021/12/29 06:29:02;;;;;;;12.23;7.40;;;;;;;;;;766982;182;919540;-67
2021/12/29 06:31:28;;;;;;;8.90;7.00;;;;;;;;;;766892;183;919209;-68
2021/12/29 06:33:54;;;;;;;12.47;8.00;;;;;;;;;;769632;180;917979;-67
2021/12/29 06:36:20;;;;;;;10.33;6.10;;;;;;;;;;764420;182;918836;-66
2021/12/29 06:38:46;;;;;;;10.50;6.80;;;;;;;;;;766161;182;919450;-66
2021/12/29 06:41:12;;;;;;;11.30;6.87;;;;;;;;;;770520;182;918475;-66
2021/12/29 06:43:37;;;;;;;11.87;7.20;;;;;;;;;;765017;182;918651;-66
2021/12/29 06:46:03;;;;;;;12.27;7.00;;;;;;;;;;766146;182;919092;-67
2021/12/29 06:48:29;;;;;;;11.63;7.27;;;;;;;;;;773219;182;936658;-67
2021/12/29 06:50:55;;;;;;;11.27;7.00;;;;;;;;;;765997;182;919604;-67
2021/12/29 06:53:21;;;;;;;12.73;7.10;;;;;;;;;;765306;182;918618;-67
2021/12/29 06:55:47;;;;;;;15.63;9.13;;;;;;;;;;769630;182;918487;-67
2021/12/29 06:58:13;;;;;;;13.73;8.10;;;;;;;;;;775077;180;918961;-67
2021/12/29 07:00:39;;;;;;;13.98;9.27;;;;;;;;;;770259;182;919858;-67
2021/12/29 07:03:05;;;;;;;18.07;10.47;;;;;;;;;;769074;182;920218;-67
2021/12/29 07:05:30;;;;;;;12.07;7.90;;;;;;;;;;770538;183;919892;-67
2021/12/29 07:07:57;;;;;;;21.47;10.60;;;;;;;;;;763981;182;918497;-66
2021/12/29 07:10:22;;;;;;;16.17;9.20;;;;;;;;;;768582;182;919197;-68
2021/12/29 07:12:48;;;;;;;13.00;8.87;;;;;;;;;;770108;182;921304;-67
2021/12/29 07:15:14;;;;;;;15.07;9.60;;;;;;;;;;767464;182;919649;-66
2021/12/29 07:17:40;;;;;;;15.33;9.10;;;;;;;;;;766257;182;921695;-67
2021/12/29 07:20:06;;;;;;;12.23;8.70;;;;;;;;;;769948;182;909748;-67
2021/12/29 07:22:32;;;;;;;17.50;10.37;;;;;;;;;;766634;182;1021901;-67
2021/12/29 07:24:58;;;;;;;14.02;9.35;;;;;;;;;;766967;182;917550;-67
2021/12/29 07:27:24;;;;;;;16.47;9.80;;;;;;;;;;766185;182;917340;-67
2021/12/29 07:29:50;;;;;;;17.03;10.73;;;;;;;;;;770417;182;914677;-67
2021/12/29 07:32:15;;;;;;;14.13;9.23;;;;;;;;;;764695;182;919818;-68
2021/12/29 07:34:41;;;;;;;17.93;11.07;;;;;;;;;;767651;182;917261;-68
2021/12/29 07:37:07;;;;;;;15.13;8.93;;;;;;;;;;771222;183;919051;-68
2021/12/29 07:39:33;;;;;;;20.27;12.70;;;;;;;;;;762617;183;919679;-67
2021/12/29 07:41:59;;;;;;;15.95;11.65;;;;;;;;;;763408;183;918507;-68
2021/12/29 07:44:26;;;;;;;23.77;13.93;;;;;;;;;;768105;183;922392;-68
2021/12/29 07:46:54;;;;;;;21.33;13.53;;;;;;;;;;766480;180;918767;-69
2021/12/29 07:49:16;;;;;;;19.60;11.17;;;;;;;;;;763473;182;918642;-68
2021/12/29 07:51:42;;;;;;;15.80;9.37;;;;;;;;;;767080;182;918908;-69
2021/12/29 07:54:08;;;;;;;19.37;11.17;;;;;;;;;;762178;184;919242;-69
2021/12/29 07:56:34;;;;;;;20.53;12.97;;;;;;;;;;764627;182;630759;-69
2021/12/29 07:59:00;;;;;;;22.97;13.13;;;;;;;;;;767906;182;919190;-68
2021/12/29 08:01:25;;;;;;;20.37;11.50;;;;;;;;;;770284;182;918780;-69
2021/12/29 08:03:51;;;;;;;19.47;11.47;;;;;;;;;;769303;183;1021577;-69
2021/12/29 08:06:17;;;;;;;19.27;11.05;;;;;;;;;;767052;181;1123331;-69
2021/12/29 08:08:43;;;;;;;19.63;9.97;;;;;;;;;;774082;182;919053;-68
2021/12/29 08:11:09;;;;;;;19.10;10.57;;;;;;;;;;765557;182;996223;-68
2021/12/29 08:13:35;;;;;;;16.40;10.00;;;;;;;;;;767641;182;919657;-69
2021/12/29 08:16:02;;;;;;;17.00;9.63;;;;;;;;;;771363;182;918850;-68
2021/12/29 08:18:28;;;;;;;12.33;8.80;;;;;;;;;;761434;184;913914;-70
2021/12/29 08:20:54;;;;;;;19.35;9.68;;;;;;;;;;762278;182;919491;-70
2021/12/29 08:23:19;;;;;;;14.47;9.43;;;;;;;;;;767414;182;917723;-69
2021/12/29 08:25:45;;;;;;;18.60;8.77;;;;;;;;;;773014;182;918492;-71
2021/12/29 08:28:12;;;;;;;14.93;9.43;;;;;;;;;;765729;182;920088;-70
2021/12/29 08:30:37;;;;;;;16.83;10.23;;;;;;;;;;764520;180;925882;-72
2021/12/29 08:33:03;;;;;;;12.60;8.50;;;;;;;;;;771012;183;919804;-71
2021/12/29 08:35:29;;;;;;;17.27;9.27;;;;;;;;;;765312;183;924424;-72
2021/12/29 08:37:54;;;;;;;15.60;9.97;;;;;;;;;;767267;182;955437;-72
2021/12/29 08:40:20;;;;;;;14.17;9.00;;;;;;;;;;771524;182;919147;-72
2021/12/29 08:42:48;;;;;;;17.27;11.07;;;;;;;;;;768261;182;919604;-72
2021/12/29 08:45:13;;;;;;;13.87;8.53;;;;;;;;;;767489;182;918839;-72
2021/12/29 08:47:39;;;;;;;19.13;9.47;;;;;;;;;;768193;182;918369;-72
2021/12/29 08:50:05;;;;;;;18.87;10.60;;;;;;;;;;771005;182;918700;-72
2021/12/29 08:52:31;;;;;;;15.80;10.17;;;;;;;;;;766135;182;921208;-71
2021/12/29 08:54:57;;;;;;;15.63;9.10;;;;;;;;;;765806;182;918930;-72
2021/12/29 08:57:22;;;;;;;16.83;9.63;;;;;;;;;;771482;182;918493;-72
2021/12/29 08:59:48;;;;;;;21.50;10.57;;;;;;;;;;767045;182;918788;-72
2021/12/29 09:02:14;;;;;;;18.40;11.63;;;;;;;;;;765517;182;918639;-70
2021/12/29 09:04:40;;;;;;;17.90;11.70;;;;;;;;;;768689;182;919885;-71
2021/12/29 09:07:06;;;;;;;20.17;10.87;;;;;;;;;;765265;182;919544;-70
2021/12/29 09:09:32;;;;;;;23.30;13.02;;;;;;;;;;764082;183;1021125;-70
2021/12/29 09:11:58;;;;;;;26.47;13.50;;;;;;;;;;766549;182;918810;-69
2021/12/29 09:14:23;;;;;;;18.87;11.37;;;;;;;;;;772372;182;918848;-70
2021/12/29 09:16:49;;;;;;;24.77;12.17;;;;;;;;;;763161;182;918692;-67
2021/12/29 09:19:15;;;;;;;20.33;11.93;;;;;;;;;;766969;182;1034383;-67
2021/12/29 09:21:43;;;;;;;23.23;12.70;;;;;;;;;;776257;180;918058;-67
2021/12/29 09:24:07;;;;;;;19.77;11.60;;;;;;;;;;766173;182;920498;-69
2021/12/29 09:26:33;;;;;;;27.10;14.68;;;;;;;;;;767726;182;920327;-68
2021/12/29 09:28:58;;;;;;;20.23;11.98;;;;;;;;;;773203;182;916470;-69
2021/12/29 09:31:24;;;;;;;21.33;12.07;;;;;;;;;;764887;183;920060;-69
2021/12/29 09:33:50;;;;;;;17.40;10.90;;;;;;;;;;763996;182;919226;-68
2021/12/29 09:36:16;;;;;;;24.33;11.27;;;;;;;;;;770563;182;914145;-68
2021/12/29 09:38:42;;;;;;;16.83;11.50;;;;;;;;;;768595;184;636012;-68
2021/12/29 09:41:08;;;;;;;23.20;14.97;;;;;;;;;;757831;184;916146;-69
2021/12/29 09:43:33;;;;;;;21.63;13.10;;;;;;;;;;754044;184;922680;-69
2021/12/29 09:45:59;;;;;;;26.73;13.67;;;;;;;;;;765356;184;811246;-67
2021/12/29 09:48:25;;;;;;;17.80;10.90;;;;;;;;;;735455;190;920315;-68
2021/12/29 09:50:51;;;;;;;21.80;10.47;;;;;;;;;;734809;190;918664;-69
2021/12/29 09:53:17;;;;;;;18.37;11.57;;;;;;;;;;764518;184;924433;-69
2021/12/29 09:55:44;;;;;;;19.27;10.43;;;;;;;;;;735527;190;913859;-70
2021/12/29 09:58:09;;;;;;;17.57;10.97;;;;;;;;;;769979;183;636328;-70
2021/12/29 10:00:34;;;;;;;17.90;10.00;;;;;;;;;;775520;183;629274;-69
2021/12/29 10:03:00;;;;;;;19.67;11.47;;;;;;;;;;763805;182;921821;-69
2021/12/29 10:05:27;;;;;;;17.93;10.77;;;;;;;;;;766766;182;920671;-70
2021/12/29 10:08:00;;;;;;;26.73;11.10;;;;;;;;;;765308;182;918433;-70
2021/12/29 10:10:26;;;;;;;21.90;11.93;;;;;;;;;;770012;182;919147;-70
2021/12/29 10:12:52;;;;;;;20.10;11.37;;;;;;;;;;767141;182;919278;-70
2021/12/29 10:15:17;;;;;;;24.80;14.50;;;;;;;;;;768801;182;918474;-70
2021/12/29 10:17:44;;;;;;;21.45;12.43;;;;;;;;;;769001;183;919649;-68
2021/12/29 10:20:10;;;;;;;21.87;15.50;;;;;;;;;;773882;180;918628;-70
2021/12/29 10:22:35;;;;;;;20.17;13.00;;;;;;;;;;766232;182;922649;-70
2021/12/29 10:25:06;;;;;;;22.92;14.50;;;;;;;;;;763305;182;919249;-70
2021/12/29 10:27:31;;;;;;;28.53;15.40;;;;;;;;;;773047;182;918491;-69
2021/12/29 10:29:57;;;;;;;28.07;13.97;;;;;;;;;;768703;182;919069;-68
2021/12/29 10:32:23;;;;;;;27.37;14.10;;;;;;;;;;767445;183;922429;-69
2021/12/29 10:34:49;;;;;;;21.43;12.20;;;;;;;;;;774044;182;918296;-69
2021/12/29 10:37:17;;;;;;;18.67;11.50;;;;;;;;;;767907;182;919294;-68
2021/12/29 10:39:41;;;;;;;19.67;11.80;;;;;;;;;;767921;182;918939;-69
2021/12/29 10:42:09;;;;;;;17.13;10.70;;;;;;;;;;765230;182;926157;-68
2021/12/29 10:44:33;;;;;;;14.03;10.00;;;;;;;;;;774597;182;918852;-68
2021/12/29 10:46:59;;;;;;;19.00;9.80;;;;;;;;;;767272;182;918978;-68
2021/12/29 10:49:25;;;;;;;16.87;10.80;;;;;;;;;;766617;182;917807;-68
2021/12/29 10:51:51;;;;;;;18.73;11.03;;;;;;;;;;770408;182;918729;-69
2021/12/29 10:54:17;;;;;;;17.07;10.80;;;;;;;;;;767358;182;919540;-70
2021/12/29 10:56:42;;;;;;;13.90;9.77;;;;;;;;;;763345;182;1021826;-67
2021/12/29 10:59:12;;;;;;;17.97;11.30;;;;;;;;;;771768;183;918715;-67
2021/12/29 11:01:38;;;;;;;15.83;11.13;;;;;;;;;;768477;182;918673;-68
2021/12/29 11:04:04;;;;;;;19.53;12.17;;;;;;;;;;766763;182;932704;-68
2021/12/29 11:06:30;;;;;;;17.33;10.70;;;;;;;;;;766498;182;919308;-67
2021/12/29 11:08:56;;;;;;;21.60;12.43;;;;;;;;;;772110;182;776773;-68
2021/12/29 11:11:27;;;;;;;17.67;10.00;;;;;;;;;;769056;182;919293;-67
2021/12/29 11:13:59;;;;;;;14.37;9.57;;;;;;;;;;766357;182;919266;-66
2021/12/29 11:16:21;;;;;;;17.42;9.63;;;;;;;;;;767078;182;918943;-66
2021/12/29 11:18:47;;;;;;;18.40;10.80;;;;;;;;;;762903;184;919708;-67
2021/12/29 11:21:11;;;;;;;17.10;11.80;;;;;;;;;;767689;182;918116;-65
2021/12/29 11:23:41;;;;;;;16.83;11.32;;;;;;;;;;761167;183;918828;-67
2021/12/29 11:26:03;;;;;;;18.97;11.10;;;;;;;;;;772168;182;918951;-66
2021/12/29 11:28:29;;;;;;;18.93;9.83;;;;;;;;;;764309;182;919600;-66
2021/12/29 11:30:55;;;;;;;18.57;11.07;;;;;;;;;;767501;182;918885;-65
2021/12/29 11:33:21;;;;;;;17.07;10.37;;;;;;;;;;770279;182;920071;-65
2021/12/29 11:35:47;;;;;;;14.10;11.17;;;;;;;;;;764584;182;924812;-65
2021/12/29 11:38:13;;;;;;;14.77;10.97;;;;;;;;;;766502;183;917774;-64
2021/12/29 11:40:40;;;;;;;22.97;11.47;;;;;;;;;;773989;180;915639;-65
2021/12/29 11:43:05;;;;;;;18.00;12.30;;;;;;;;;;768724;182;916431;-65
2021/12/29 11:45:30;;;;;;;20.83;11.90;;;;;;;;;;768143;182;1028741;-64
2021/12/29 11:47:56;;;;;;;14.53;10.67;;;;;;;;;;767482;182;918085;-65
2021/12/29 11:50:25;;;;;;;20.90;12.50;;;;;;;;;;772559;183;906069;-66
2021/12/29 11:53:10;;;;;;;20.80;12.90;;;;;;;;;;763297;183;918832;-66
2021/12/29 11:55:37;;;;;;;19.73;11.07;;;;;;;;;;759285;182;918752;-66
2021/12/29 11:58:08;;;;;;;21.67;13.97;;;;;;;;;;763494;182;919657;-66
2021/12/29 12:00:34;;;;;;;26.47;14.63;;;;;;;;;;764900;180;1020564;-66
2021/12/29 12:03:07;;;;;;;30.63;16.77;;;;;;;;;;770712;182;919437;-67
2021/12/29 12:05:33;;;;;;;33.20;17.40;;;;;;;;;;767111;182;919387;-65
2021/12/29 12:08:04;;;;;;;30.57;17.13;;;;;;;;;;764695;183;919718;-65
2021/12/29 12:10:34;;;;;;;28.47;14.97;;;;;;;;;;765421;182;917986;-65
2021/12/29 12:12:56;;;;;;;25.47;14.50;;;;;;;;;;768402;182;918977;-65
2021/12/29 12:15:27;;;;;;;24.02;13.10;;;;;;;;;;767841;182;918985;-63
2021/12/29 12:17:53;;;;;;;18.83;11.33;;;;;;;;;;766762;183;918994;-63
2021/12/29 12:20:19;;;;;;;28.00;17.60;;;;;;;;;;766199;183;918782;-64
2021/12/29 12:22:46;;;;;;;27.50;14.90;;;;;;;;;;763235;183;918906;-64
2021/12/29 12:25:12;;;;;;;26.25;16.10;;;;;;;;;;765491;183;918809;-64
2021/12/29 12:27:38;;;;;;;26.07;15.73;;;;;;;;;;764763;183;919410;-64
2021/12/29 12:30:04;;;;;;;29.53;17.40;;;;;;;;;;773602;182;893444;-64
2021/12/29 12:32:30;;;;;;;27.73;17.53;;;;;;;;;;767249;182;920036;-63
2021/12/29 12:34:57;;;;;;;40.70;21.87;;;;;;;;;;766758;182;916638;-64
2021/12/29 12:37:23;;;;;;;26.75;15.32;;;;;;;;;;771836;182;919236;-64
2021/12/29 12:39:51;;;;;;;32.90;18.97;;;;;;;;;;766413;182;914913;-64
2021/12/29 12:42:17;;;;;;;31.47;19.17;;;;;;;;;;765826;182;915947;-64
2021/12/29 12:44:42;;;;;;;28.60;18.30;;;;;;;;;;766363;182;916272;-66
2021/12/29 12:47:08;;;;;;;26.90;15.03;;;;;;;;;;763146;184;916651;-64
2021/12/29 12:49:34;;;;;;;28.70;14.13;;;;;;;;;;763676;182;1016313;-65
2021/12/29 12:52:00;;;;;;;26.60;14.33;;;;;;;;;;764824;181;919271;-63
2021/12/29 12:54:27;;;;;;;19.67;12.63;;;;;;;;;;775174;182;915231;-65
2021/12/29 12:56:52;;;;;;;24.30;14.37;;;;;;;;;;767417;182;918457;-65
2021/12/29 12:59:17;;;;;;;27.07;12.10;;;;;;;;;;767812;182;934786;-64
2021/12/29 13:01:45;;;;;;;26.70;13.20;;;;;;;;;;773626;182;916353;-64
2021/12/29 13:04:12;;;;;;;20.03;13.20;;;;;;;;;;765400;183;918661;-64
2021/12/29 13:06:36;;;;;;;24.50;14.90;;;;;;;;;;767247;183;920691;-64
2021/12/29 13:09:02;;;;;;;23.13;11.93;;;;;;;;;;768104;182;919324;-64
2021/12/29 13:11:28;;;;;;;27.70;12.70;;;;;;;;;;772048;180;920633;-63
2021/12/29 13:13:53;;;;;;;26.13;14.03;;;;;;;;;;765901;182;919549;-65
2021/12/29 13:16:19;;;;;;;26.40;15.10;;;;;;;;;;766486;182;919741;-62
2021/12/29 13:18:45;;;;;;;31.60;14.85;;;;;;;;;;770999;182;922686;-64
2021/12/29 13:21:13;;;;;;;27.83;15.90;;;;;;;;;;766240;182;919457;-63
2021/12/29 13:23:39;;;;;;;30.85;18.20;;;;;;;;;;765668;182;918728;-64
2021/12/29 13:26:05;;;;;;;34.20;18.27;;;;;;;;;;771355;182;919198;-67
2021/12/29 13:28:30;;;;;;;35.93;18.43;;;;;;;;;;764405;182;916485;-65
2021/12/29 13:30:57;;;;;;;30.70;15.17;;;;;;;;;;764887;183;920006;-65
2021/12/29 13:33:22;;;;;;;26.63;16.07;;;;;;;;;;766595;182;916810;-64
2021/12/29 13:35:49;;;;;;;32.33;16.30;;;;;;;;;;752890;184;926199;-64
2021/12/29 13:38:17;;;;;;;35.30;16.60;;;;;;;;;;762046;183;919515;-63
2021/12/29 13:40:40;;;;;;;37.13;17.83;;;;;;;;;;769245;183;625947;-65
2021/12/29 13:43:07;;;;;;;30.00;17.33;;;;;;;;;;770315;182;918861;-65
2021/12/29 13:45:34;;;;;;;30.47;16.07;;;;;;;;;;766700;182;918052;-63
2021/12/29 13:47:58;;;;;;;34.00;16.80;;;;;;;;;;767453;182;917867;-64
2021/12/29 13:50:24;;;;;;;29.50;16.63;;;;;;;;;;773606;179;917054;-64
2021/12/29 13:52:54;;;;;;;38.43;19.13;;;;;;;;;;765673;182;923748;-64
2021/12/29 13:55:32;;;;;;;43.00;20.50;;;;;;;;;;764157;182;917532;-64
2021/12/29 13:57:58;;;;;;;33.73;19.60;;;;;;;;;;766284;182;921938;-64
2021/12/29 14:00:25;;;;;;;33.20;20.20;;;;;;;;;;768333;182;919478;-61
2021/12/29 14:02:51;;;;;;;43.87;17.77;;;;;;;;;;773981;180;919363;-65
2021/12/29 14:05:17;;;;;;;38.40;19.00;;;;;;;;;;768112;181;923037;-64
2021/12/29 14:07:42;;;;;;;37.40;18.87;;;;;;;;;;768164;182;919730;-65
2021/12/29 14:10:09;;;;;;;35.73;19.10;;;;;;;;;;773662;181;917866;-65
2021/12/29 14:12:36;;;;;;;43.70;19.43;;;;;;;;;;768309;182;923153;-65
2021/12/29 14:15:01;;;;;;;45.07;22.40;;;;;;;;;;770654;182;817530;-63